Time;durP1;ratioP1;P1;durP2;ratioP2;P2;SDS_P1;SDS_P2;PMS_P1;PMS_P2;Temp;Humidity;BMP_temperature;BMP_pressure;BME280_temperature;BME280_humidity;BME280_pressure;Samples;Min_cycle;Max_cycle;Signal;HPM_P1;HPM_P2
2021/05/20 00:00:56;;;;;;;2.58;0.60;;;;;;;;;;5051071;28;20082;-71
2021/05/20 00:03:22;;;;;;;1.95;0.80;;;;;;;;;;5051228;28;20029;-71
2021/05/20 00:05:48;;;;;;;0.55;0.50;;;;;;;;;;5051776;28;20028;-71
2021/05/20 00:08:14;;;;;;;1.20;1.05;;;;;;;;;;5050853;28;20043;-71
2021/05/20 00:10:40;;;;;;;1.15;0.82;;;;;;;;;;5051639;28;20032;-71
2021/05/20 00:13:06;;;;;;;1.38;0.50;;;;;;;;;;5050490;28;20391;-71
2021/05/20 00:15:32;;;;;;;1.80;0.80;;;;;;;;;;5051260;28;20029;-71
2021/05/20 00:17:58;;;;;;;0.40;0.40;;;;;;;;;;5050490;28;20111;-71
2021/05/20 00:20:24;;;;;;;0.73;0.50;;;;;;;;;;5051016;28;20029;-72
2021/05/20 00:22:51;;;;;;;0.60;0.40;;;;;;;;;;5050956;28;20025;-72
2021/05/20 00:25:17;;;;;;;1.67;0.60;;;;;;;;;;5050982;28;20033;-71
2021/05/20 00:27:43;;;;;;;2.15;0.43;;;;;;;;;;5051135;28;20025;-71
2021/05/20 00:30:12;;;;;;;0.70;0.70;;;;;;;;;;5050265;28;20033;-71
2021/05/20 00:32:38;;;;;;;0.80;0.60;;;;;;;;;;5050867;28;20518;-72
2021/05/20 00:35:05;;;;;;;1.25;0.50;;;;;;;;;;5050556;28;20036;-71
2021/05/20 00:37:31;;;;;;;1.35;0.98;;;;;;;;;;5050690;28;20033;-71
2021/05/20 00:39:57;;;;;;;0.60;0.40;;;;;;;;;;5050863;28;20033;-71
2021/05/20 00:42:23;;;;;;;0.85;0.40;;;;;;;;;;5050738;28;20052;-72
2021/05/20 00:44:50;;;;;;;0.75;0.40;;;;;;;;;;5050753;28;20495;-71
2021/05/20 00:47:20;;;;;;;1.02;0.45;;;;;;;;;;5050225;28;20036;-72
2021/05/20 00:49:46;;;;;;;0.55;0.43;;;;;;;;;;5050503;28;20048;-71
2021/05/20 00:52:12;;;;;;;0.52;0.40;;;;;;;;;;5033377;28;20021;-71
2021/05/20 00:54:38;;;;;;;0.50;0.38;;;;;;;;;;5030925;28;20049;-71
2021/05/20 00:57:05;;;;;;;0.57;0.35;;;;;;;;;;5030097;28;20033;-71
2021/05/20 00:59:31;;;;;;;0.50;0.35;;;;;;;;;;5030287;28;20045;-72
2021/05/20 01:01:57;;;;;;;0.28;0.28;;;;;;;;;;5029975;28;20061;-71
2021/05/20 01:04:23;;;;;;;1.85;0.60;;;;;;;;;;5030590;28;20049;-71
2021/05/20 01:06:49;;;;;;;1.65;0.73;;;;;;;;;;5030588;28;20029;-71
2021/05/20 01:09:15;;;;;;;0.65;0.60;;;;;;;;;;5030084;28;20544;-71
2021/05/20 01:11:42;;;;;;;0.55;0.45;;;;;;;;;;5030522;28;20040;-72
2021/05/20 01:14:11;;;;;;;0.70;0.70;;;;;;;;;;5029994;28;20555;-71
2021/05/20 01:16:38;;;;;;;0.80;0.30;;;;;;;;;;5030328;28;20084;-71
2021/05/20 01:19:05;;;;;;;0.60;0.45;;;;;;;;;;5029187;28;20377;-71
2021/05/20 01:21:34;;;;;;;1.17;0.40;;;;;;;;;;5030339;28;20080;-71
2021/05/20 01:24:00;;;;;;;0.77;0.55;;;;;;;;;;5030028;28;20033;-71
2021/05/20 01:26:28;;;;;;;3.03;1.27;;;;;;;;;;5030518;28;20040;-71
2021/05/20 01:28:55;;;;;;;0.30;0.25;;;;;;;;;;5030364;28;20030;-71
2021/05/20 01:31:21;;;;;;;0.43;0.30;;;;;;;;;;5029684;28;20027;-71
2021/05/20 01:33:47;;;;;;;0.70;0.40;;;;;;;;;;5030302;28;20030;-71
2021/05/20 01:36:13;;;;;;;0.30;0.30;;;;;;;;;;5029823;28;20458;-71
2021/05/20 01:41:06;;;;;;;1.08;0.43;;;;;;;;;;5029675;28;20034;-71
2021/05/20 01:43:33;;;;;;;0.73;0.60;;;;;;;;;;5030335;28;20412;-71
2021/05/20 01:46:00;;;;;;;2.55;1.17;;;;;;;;;;5029990;28;20037;-71
2021/05/20 01:48:29;;;;;;;1.05;0.60;;;;;;;;;;5029704;28;20049;-71
2021/05/20 01:51:12;;;;;;;0.70;0.43;;;;;;;;;;5035535;28;20037;-71
2021/05/20 01:53:39;;;;;;;0.50;0.50;;;;;;;;;;5050101;28;20478;-72
2021/05/20 01:56:06;;;;;;;1.30;0.57;;;;;;;;;;5049303;28;20033;-71
2021/05/20 01:58:32;;;;;;;0.73;0.52;;;;;;;;;;5052664;28;20033;-71
2021/05/20 02:00:59;;;;;;;1.20;0.95;;;;;;;;;;5053273;28;20033;-71
2021/05/20 02:03:25;;;;;;;0.70;0.60;;;;;;;;;;5073602;28;20108;-71
2021/05/20 02:05:51;;;;;;;0.40;0.40;;;;;;;;;;5073691;28;20430;-72
2021/05/20 02:08:17;;;;;;;1.85;1.20;;;;;;;;;;5073055;28;20133;-71
2021/05/20 02:10:43;;;;;;;0.35;0.35;;;;;;;;;;5073683;28;20024;-71
2021/05/20 02:13:09;;;;;;;0.80;0.50;;;;;;;;;;5073019;28;20032;-72
2021/05/20 02:15:37;;;;;;;0.60;0.30;;;;;;;;;;5055995;28;20028;-71
2021/05/20 02:18:03;;;;;;;0.80;0.38;;;;;;;;;;5072889;28;20032;-71
2021/05/20 02:20:29;;;;;;;0.63;0.35;;;;;;;;;;5073037;28;20036;-71
2021/05/20 02:22:55;;;;;;;1.48;0.52;;;;;;;;;;5073041;28;20033;-71
2021/05/20 02:25:21;;;;;;;3.55;1.05;;;;;;;;;;5073144;28;20033;-71
2021/05/20 02:27:47;;;;;;;0.70;0.50;;;;;;;;;;5073348;28;20085;-71
2021/05/20 02:30:16;;;;;;;0.63;0.40;;;;;;;;;;5072561;28;20443;-71
2021/05/20 02:32:43;;;;;;;0.45;0.32;;;;;;;;;;5073263;28;20028;-71
2021/05/20 02:35:09;;;;;;;1.15;0.43;;;;;;;;;;5072674;28;20059;-71
2021/05/20 02:37:36;;;;;;;0.55;0.40;;;;;;;;;;5073563;28;20032;-71
2021/05/20 02:40:02;;;;;;;0.95;0.80;;;;;;;;;;5072827;28;20119;-72
2021/05/20 02:42:28;;;;;;;2.05;0.30;;;;;;;;;;5073022;28;20378;-72
2021/05/20 02:44:54;;;;;;;2.00;0.40;;;;;;;;;;5073405;28;20040;-71
2021/05/20 02:47:20;;;;;;;2.05;0.50;;;;;;;;;;5072833;28;20031;-72
2021/05/20 02:49:46;;;;;;;0.55;0.50;;;;;;;;;;5072830;28;20052;-71
2021/05/20 02:52:12;;;;;;;2.08;0.40;;;;;;;;;;5055377;28;20128;-71
2021/05/20 02:54:40;;;;;;;0.40;0.40;;;;;;;;;;5053046;28;20033;-72
2021/05/20 02:57:06;;;;;;;1.48;0.85;;;;;;;;;;5052823;28;20096;-71
2021/05/20 02:59:32;;;;;;;0.52;0.40;;;;;;;;;;5052503;28;20033;-71
2021/05/20 03:02:06;;;;;;;0.68;0.40;;;;;;;;;;5051990;28;20040;-71
2021/05/20 03:04:33;;;;;;;1.23;0.40;;;;;;;;;;5052496;28;20430;-71
2021/05/20 03:06:59;;;;;;;0.75;0.73;;;;;;;;;;5052408;28;20379;-71
2021/05/20 03:09:25;;;;;;;0.90;0.30;;;;;;;;;;5051091;28;20361;-71
2021/05/20 03:11:51;;;;;;;0.57;0.40;;;;;;;;;;5052619;28;20029;-71
2021/05/20 03:14:17;;;;;;;1.73;0.40;;;;;;;;;;5051688;28;20505;-71
2021/05/20 03:16:43;;;;;;;0.55;0.55;;;;;;;;;;5052967;28;20032;-72
2021/05/20 03:19:10;;;;;;;0.50;0.50;;;;;;;;;;5051618;28;20048;-71
2021/05/20 03:21:36;;;;;;;1.95;0.65;;;;;;;;;;5051713;28;20017;-71
2021/05/20 03:24:02;;;;;;;0.60;0.35;;;;;;;;;;5051878;28;20418;-71
2021/05/20 03:26:28;;;;;;;0.22;0.22;;;;;;;;;;5052032;28;20025;-71
2021/05/20 03:28:54;;;;;;;2.08;0.68;;;;;;;;;;5052135;28;20037;-72
2021/05/20 03:31:20;;;;;;;0.95;0.70;;;;;;;;;;5051940;28;20033;-71
2021/05/20 03:33:46;;;;;;;1.75;0.68;;;;;;;;;;5052374;28;20528;-71
2021/05/20 03:36:12;;;;;;;0.38;0.38;;;;;;;;;;5051882;28;20052;-72
2021/05/20 03:38:38;;;;;;;0.43;0.43;;;;;;;;;;5052329;28;20094;-71
2021/05/20 03:41:04;;;;;;;1.10;0.65;;;;;;;;;;5051386;28;20063;-71
2021/05/20 03:43:31;;;;;;;0.30;0.30;;;;;;;;;;5052136;28;20609;-71
2021/05/20 03:45:57;;;;;;;0.50;0.50;;;;;;;;;;5051768;28;20029;-71
2021/05/20 03:48:24;;;;;;;0.73;0.73;;;;;;;;;;5051507;28;20132;-71
2021/05/20 03:50:50;;;;;;;0.68;0.40;;;;;;;;;;5051625;28;20022;-72
2021/05/20 03:53:16;;;;;;;0.47;0.20;;;;;;;;;;5051175;28;20032;-71
2021/05/20 03:55:42;;;;;;;0.45;0.45;;;;;;;;;;5051807;28;20032;-71
2021/05/20 03:58:08;;;;;;;0.55;0.50;;;;;;;;;;5050988;28;20372;-71
2021/05/20 04:00:34;;;;;;;0.28;0.28;;;;;;;;;;5051105;28;20368;-71
2021/05/20 04:03:00;;;;;;;0.43;0.43;;;;;;;;;;5051012;28;20395;-71
2021/05/20 04:05:26;;;;;;;0.30;0.30;;;;;;;;;;5051543;28;20047;-71
2021/05/20 04:07:53;;;;;;;0.20;0.20;;;;;;;;;;5051650;28;20090;-71
2021/05/20 04:10:19;;;;;;;0.73;0.32;;;;;;;;;;5050894;28;20033;-71
2021/05/20 04:12:45;;;;;;;0.75;0.45;;;;;;;;;;5051313;28;20039;-71
2021/05/20 04:15:11;;;;;;;0.90;0.57;;;;;;;;;;5050697;28;20025;-71
2021/05/20 04:17:38;;;;;;;0.65;0.60;;;;;;;;;;5051332;28;20036;-71
2021/05/20 04:20:04;;;;;;;1.75;0.73;;;;;;;;;;5050464;28;20033;-71
2021/05/20 04:22:30;;;;;;;0.30;0.30;;;;;;;;;;5050701;28;20035;-72
2021/05/20 04:24:56;;;;;;;0.70;0.30;;;;;;;;;;5051012;28;20368;-71
2021/05/20 04:27:22;;;;;;;0.60;0.60;;;;;;;;;;5051182;28;20029;-71
2021/05/20 04:29:48;;;;;;;0.30;0.30;;;;;;;;;;5050867;28;20028;-71
2021/05/20 04:32:14;;;;;;;0.80;0.60;;;;;;;;;;5050342;28;20029;-72
2021/05/20 04:34:43;;;;;;;0.40;0.40;;;;;;;;;;5051045;28;20028;-71
2021/05/20 04:37:10;;;;;;;0.60;0.40;;;;;;;;;;5050743;28;20025;-71
2021/05/20 04:39:36;;;;;;;1.02;0.57;;;;;;;;;;5050924;28;20086;-72
2021/05/20 04:42:02;;;;;;;0.30;0.20;;;;;;;;;;5050295;28;20029;-71
2021/05/20 04:44:28;;;;;;;0.60;0.40;;;;;;;;;;5051049;28;20029;-71
2021/05/20 04:46:54;;;;;;;0.50;0.40;;;;;;;;;;5050901;28;20029;-71
2021/05/20 04:49:20;;;;;;;0.22;0.22;;;;;;;;;;5037453;28;20052;-71
2021/05/20 04:51:46;;;;;;;0.20;0.20;;;;;;;;;;5043398;28;20086;-71
2021/05/20 04:54:13;;;;;;;0.55;0.38;;;;;;;;;;5050060;28;20087;-71
2021/05/20 04:56:39;;;;;;;0.80;0.57;;;;;;;;;;5050644;28;20048;-71
2021/05/20 04:59:05;;;;;;;4.00;0.85;;;;;;;;;;5049637;28;20129;-70
2021/05/20 05:01:33;;;;;;;0.30;0.20;;;;;;;;;;5050522;28;20024;-71
2021/05/20 05:03:59;;;;;;;1.17;0.98;;;;;;;;;;5050049;28;20488;-71
2021/05/20 05:06:25;;;;;;;1.30;0.77;;;;;;;;;;5050225;28;20032;-71
2021/05/20 05:08:51;;;;;;;0.30;0.30;;;;;;;;;;5050695;28;20029;-71
2021/05/20 05:11:17;;;;;;;0.43;0.20;;;;;;;;;;5049814;28;20493;-71
2021/05/20 05:13:43;;;;;;;0.40;0.40;;;;;;;;;;5050678;28;20048;-72
2021/05/20 05:16:09;;;;;;;0.60;0.30;;;;;;;;;;5050000;28;20086;-71
2021/05/20 05:18:36;;;;;;;1.95;0.40;;;;;;;;;;5050360;28;20451;-71
2021/05/20 05:21:02;;;;;;;0.25;0.25;;;;;;;;;;5049660;28;20025;-72
2021/05/20 05:23:29;;;;;;;3.47;0.40;;;;;;;;;;5049888;28;20029;-72
2021/05/20 05:25:55;;;;;;;5.47;0.60;;;;;;;;;;5050191;28;20028;-71
2021/05/20 05:28:21;;;;;;;0.40;0.40;;;;;;;;;;5069710;28;20063;-71
2021/05/20 05:30:47;;;;;;;0.43;0.43;;;;;;;;;;5070021;28;20032;-71
2021/05/20 05:33:13;;;;;;;0.40;0.40;;;;;;;;;;5072150;28;20032;-71
2021/05/20 05:35:39;;;;;;;0.40;0.40;;;;;;;;;;5074565;28;20055;-71
2021/05/20 05:38:06;;;;;;;0.50;0.50;;;;;;;;;;5073433;28;20382;-71
2021/05/20 05:40:32;;;;;;;0.50;0.30;;;;;;;;;;5074215;28;20082;-72
2021/05/20 05:42:58;;;;;;;0.35;0.35;;;;;;;;;;5073905;28;20040;-71
2021/05/20 05:45:24;;;;;;;0.35;0.25;;;;;;;;;;5074336;28;20059;-71
2021/05/20 05:47:50;;;;;;;1.60;0.30;;;;;;;;;;5074236;28;20625;-71
2021/05/20 05:50:16;;;;;;;0.35;0.32;;;;;;;;;;5074333;28;20554;-71
2021/05/20 05:52:42;;;;;;;1.10;0.50;;;;;;;;;;5071040;28;20060;-72
2021/05/20 05:55:09;;;;;;;0.68;0.68;;;;;;;;;;5072074;28;20070;-71
2021/05/20 05:57:35;;;;;;;0.98;0.95;;;;;;;;;;5076459;28;20082;-72
2021/05/20 06:00:01;;;;;;;1.75;1.15;;;;;;;;;;5080378;28;20031;-71
2021/05/20 06:02:28;;;;;;;1.17;0.35;;;;;;;;;;5071179;28;20075;-71
2021/05/20 06:04:54;;;;;;;2.88;0.63;;;;;;;;;;5071750;28;20028;-71
2021/05/20 06:07:21;;;;;;;0.68;0.47;;;;;;;;;;5071230;28;20036;-71
2021/05/20 06:09:47;;;;;;;1.98;0.40;;;;;;;;;;5080739;28;20138;-71
2021/05/20 06:12:13;;;;;;;4.15;0.70;;;;;;;;;;5067320;28;20024;-71
2021/05/20 06:14:40;;;;;;;2.75;0.70;;;;;;;;;;5069097;28;20391;-71
2021/05/20 06:17:07;;;;;;;0.50;0.50;;;;;;;;;;5069134;28;20570;-72
2021/05/20 06:19:33;;;;;;;0.45;0.45;;;;;;;;;;5070688;28;20048;-72
2021/05/20 06:22:00;;;;;;;0.85;0.60;;;;;;;;;;5064864;28;20029;-72
2021/05/20 06:24:26;;;;;;;0.77;0.77;;;;;;;;;;5055317;28;20031;-71
2021/05/20 06:26:52;;;;;;;2.28;0.50;;;;;;;;;;5059126;28;20115;-71
2021/05/20 06:29:18;;;;;;;1.92;0.70;;;;;;;;;;5050707;28;20415;-74
2021/05/20 06:31:44;;;;;;;5.97;0.95;;;;;;;;;;5059025;28;20024;-74
2021/05/20 06:34:10;;;;;;;2.45;0.90;;;;;;;;;;5069107;28;20078;-73
2021/05/20 06:36:37;;;;;;;2.40;0.85;;;;;;;;;;5071660;28;20036;-71
2021/05/20 06:39:08;;;;;;;1.40;1.30;;;;;;;;;;5070948;28;20036;-71
2021/05/20 06:41:34;;;;;;;1.80;0.90;;;;;;;;;;5067568;28;20055;-73
2021/05/20 06:44:00;;;;;;;2.58;0.82;;;;;;;;;;5069925;28;20063;-72
2021/05/20 06:46:26;;;;;;;3.38;0.70;;;;;;;;;;5079056;28;20020;-71
2021/05/20 06:48:54;;;;;;;0.95;0.60;;;;;;;;;;5076711;28;20072;-71
2021/05/20 06:51:20;;;;;;;1.85;0.82;;;;;;;;;;5089730;28;20024;-73
2021/05/20 06:53:48;;;;;;;4.60;0.95;;;;;;;;;;5059635;28;20028;-73
2021/05/20 06:56:20;;;;;;;1.17;0.90;;;;;;;;;;5062771;28;20034;-73
2021/05/20 07:01:31;;;;;;;0.90;0.82;;;;;;;;;;5060646;28;20102;-72
2021/05/20 07:03:57;;;;;;;1.92;1.50;;;;;;;;;;5061924;28;20038;-71
2021/05/20 07:06:24;;;;;;;2.45;1.30;;;;;;;;;;5063603;28;20040;-71
2021/05/20 07:08:50;;;;;;;3.30;0.65;;;;;;;;;;5050895;28;20151;-74
2021/05/20 07:11:16;;;;;;;1.42;1.02;;;;;;;;;;5061569;28;20028;-72
2021/05/20 07:13:43;;;;;;;4.03;1.70;;;;;;;;;;5061764;28;20025;-72
2021/05/20 07:16:09;;;;;;;2.20;1.33;;;;;;;;;;5063650;28;20470;-73
2021/05/20 07:18:35;;;;;;;1.30;0.90;;;;;;;;;;5061189;28;20101;-73
2021/05/20 07:21:01;;;;;;;2.10;1.55;;;;;;;;;;5062747;28;20063;-72
2021/05/20 07:23:27;;;;;;;1.95;0.73;;;;;;;;;;5063152;28;20036;-74
2021/05/20 07:25:54;;;;;;;0.80;0.80;;;;;;;;;;5062625;28;20221;-73
2021/05/20 07:28:22;;;;;;;1.92;1.15;;;;;;;;;;5060621;28;20120;-72
2021/05/20 07:30:48;;;;;;;2.00;0.93;;;;;;;;;;5060886;28;20531;-72
2021/05/20 07:33:14;;;;;;;3.28;1.60;;;;;;;;;;5058680;28;20393;-72
2021/05/20 07:35:40;;;;;;;1.48;0.75;;;;;;;;;;5059583;28;20065;-72
2021/05/20 07:38:07;;;;;;;1.27;0.95;;;;;;;;;;5060082;28;20047;-72
2021/05/20 07:40:33;;;;;;;3.25;1.00;;;;;;;;;;5063526;28;20479;-73
2021/05/20 07:42:59;;;;;;;4.07;1.20;;;;;;;;;;5063093;28;20085;-72
2021/05/20 07:45:25;;;;;;;1.25;0.98;;;;;;;;;;5041598;28;20181;-72
2021/05/20 07:47:51;;;;;;;1.10;1.00;;;;;;;;;;5057754;28;20037;-72
2021/05/20 07:50:17;;;;;;;1.33;0.95;;;;;;;;;;5040945;28;20077;-72
2021/05/20 07:52:44;;;;;;;1.90;1.20;;;;;;;;;;5042909;28;20104;-75
2021/05/20 07:55:11;;;;;;;1.35;1.30;;;;;;;;;;5040782;28;20036;-75
2021/05/20 07:57:37;;;;;;;1.15;0.90;;;;;;;;;;5041901;28;20071;-72
2021/05/20 08:00:04;;;;;;;3.17;1.80;;;;;;;;;;5040865;28;20117;-72
2021/05/20 08:05:21;;;;;;;1.30;1.10;;;;;;;;;;5039647;28;20101;-72
2021/05/20 08:07:58;;;;;;;3.85;1.40;;;;;;;;;;5042998;28;20033;-72
2021/05/20 08:10:41;;;;;;;2.83;1.55;;;;;;;;;;5042110;28;20430;-71
2021/05/20 08:13:08;;;;;;;2.78;1.50;;;;;;;;;;5034817;28;20045;-72
2021/05/20 08:15:34;;;;;;;1.83;1.67;;;;;;;;;;5044470;28;20444;-72
2021/05/20 08:18:00;;;;;;;1.33;1.10;;;;;;;;;;5046890;28;20037;-72
2021/05/20 08:20:26;;;;;;;3.25;0.90;;;;;;;;;;5035564;28;20080;-72
2021/05/20 08:22:52;;;;;;;1.25;1.15;;;;;;;;;;5029338;28;20037;-72
2021/05/20 08:25:18;;;;;;;2.10;1.00;;;;;;;;;;5029181;28;20464;-72
2021/05/20 08:27:44;;;;;;;2.10;0.80;;;;;;;;;;5043464;28;20029;-72
2021/05/20 08:30:11;;;;;;;1.45;1.35;;;;;;;;;;5037132;28;20029;-72
2021/05/20 08:32:37;;;;;;;1.67;1.35;;;;;;;;;;5047638;28;20093;-72
2021/05/20 08:35:04;;;;;;;1.23;1.10;;;;;;;;;;5047432;28;20031;-72
2021/05/20 08:37:30;;;;;;;1.33;0.80;;;;;;;;;;5042221;28;20021;-73
2021/05/20 08:39:56;;;;;;;2.22;1.20;;;;;;;;;;5043238;28;20119;-73
2021/05/20 08:42:23;;;;;;;1.00;0.90;;;;;;;;;;5039048;28;20484;-73
2021/05/20 08:44:49;;;;;;;1.90;1.00;;;;;;;;;;5042252;28;20017;-72
2021/05/20 08:47:15;;;;;;;1.63;1.27;;;;;;;;;;5038077;28;20116;-73
2021/05/20 08:49:45;;;;;;;1.80;1.10;;;;;;;;;;5049804;28;20427;-72
2021/05/20 08:52:13;;;;;;;4.78;1.60;;;;;;;;;;5045375;28;20164;-72
2021/05/20 08:54:39;;;;;;;2.25;1.10;;;;;;;;;;5048047;28;20087;-73
2021/05/20 08:57:05;;;;;;;1.60;1.27;;;;;;;;;;5047464;28;20091;-73
2021/05/20 08:59:32;;;;;;;3.38;0.90;;;;;;;;;;5048050;28;20124;-72
2021/05/20 09:01:59;;;;;;;2.40;0.95;;;;;;;;;;5058933;28;20024;-72
2021/05/20 09:04:28;;;;;;;2.47;1.15;;;;;;;;;;5057637;28;20021;-73
2021/05/20 09:07:00;;;;;;;1.27;1.17;;;;;;;;;;5056556;28;20021;-73
2021/05/20 09:09:34;;;;;;;1.77;1.10;;;;;;;;;;5049069;28;20107;-73
2021/05/20 09:12:01;;;;;;;2.30;1.20;;;;;;;;;;5061459;28;20490;-72
2021/05/20 09:14:34;;;;;;;0.93;0.90;;;;;;;;;;5067411;28;20511;-72
2021/05/20 09:17:00;;;;;;;;;;;;;;;;;;5047091;28;20495;-72
2021/05/20 09:19:26;;;;;;;4.72;0.90;;;;;;;;;;5048707;28;20011;-75
2021/05/20 09:22:08;;;;;;;2.72;0.70;;;;;;;;;;5048236;28;20021;-75
2021/05/20 09:24:44;;;;;;;3.60;0.80;;;;;;;;;;5048861;28;20029;-73
2021/05/20 09:27:31;;;;;;;0.93;0.80;;;;;;;;;;5047683;28;20116;-73
2021/05/20 09:30:16;;;;;;;3.92;1.25;;;;;;;;;;5043791;28;20037;-76
2021/05/20 09:32:53;;;;;;;2.25;0.80;;;;;;;;;;5048606;28;20032;-72
2021/05/20 09:35:20;;;;;;;0.88;0.88;;;;;;;;;;5060139;28;20044;-73
2021/05/20 09:37:46;;;;;;;1.95;0.60;;;;;;;;;;5058629;28;20113;-72
2021/05/20 09:40:12;;;;;;;2.53;0.70;;;;;;;;;;5054423;28;20036;-72
2021/05/20 09:42:39;;;;;;;0.90;0.90;;;;;;;;;;5049205;28;20612;-72
2021/05/20 09:45:09;;;;;;;1.85;0.80;;;;;;;;;;5066630;28;20086;-72
2021/05/20 09:47:35;;;;;;;4.55;0.85;;;;;;;;;;5048747;28;20126;-75
2021/05/20 09:50:11;;;;;;;1.98;0.90;;;;;;;;;;5086871;28;20101;-73
2021/05/20 09:52:37;;;;;;;2.80;0.90;;;;;;;;;;5067552;28;20337;-72
2021/05/20 09:55:15;;;;;;;1.27;0.85;;;;;;;;;;5066308;28;20510;-73
2021/05/20 09:57:42;;;;;;;1.55;1.00;;;;;;;;;;5066708;28;20017;-72
2021/05/20 10:00:12;;;;;;;3.50;1.27;;;;;;;;;;5048474;28;20032;-73
2021/05/20 10:02:39;;;;;;;2.47;0.98;;;;;;;;;;5068615;28;20060;-78
2021/05/20 10:05:26;;;;;;;1.52;0.82;;;;;;;;;;5067299;28;20048;-73
2021/05/20 10:07:53;;;;;;;5.55;1.17;;;;;;;;;;5054854;28;20029;-74
2021/05/20 10:10:20;;;;;;;1.05;0.77;;;;;;;;;;5055032;28;20037;-72
2021/05/20 10:12:46;;;;;;;3.55;1.02;;;;;;;;;;5057867;28;20033;-72
2021/05/20 10:15:14;;;;;;;8.43;1.70;;;;;;;;;;5052709;28;21235;-73
2021/05/20 10:17:41;;;;;;;4.78;1.17;;;;;;;;;;5057773;28;20451;-72
2021/05/20 10:20:08;;;;;;;2.25;0.90;;;;;;;;;;5060276;28;20089;-78
2021/05/20 10:22:34;;;;;;;10.57;1.55;;;;;;;;;;5040825;28;20058;-74
2021/05/20 10:25:01;;;;;;;1.40;0.85;;;;;;;;;;5059803;28;20031;-79
2021/05/20 10:27:27;;;;;;;2.25;1.00;;;;;;;;;;5063739;28;20025;-76
2021/05/20 10:29:53;;;;;;;10.38;1.17;;;;;;;;;;5051328;23;20070;-81
2021/05/20 10:32:20;;;;;;;3.50;1.35;;;;;;;;;;5021359;28;21141;-82
2021/05/20 10:35:01;;;;;;;1.20;0.80;;;;;;;;;;5020965;28;20722;-80
2021/05/20 10:37:41;;;;;;;1.25;1.10;;;;;;;;;;5024427;28;20033;-80
2021/05/20 10:40:09;;;;;;;1.60;1.00;;;;;;;;;;5022303;28;20037;-79
2021/05/20 10:42:35;;;;;;;1.08;1.02;;;;;;;;;;5021815;28;20057;-80
2021/05/20 10:45:17;;;;;;;0.98;0.60;;;;;;;;;;5022264;28;20059;-81
2021/05/20 10:48:07;;;;;;;0.50;0.40;;;;;;;;;;5023818;28;20390;-80
2021/05/20 10:50:52;;;;;;;2.20;0.95;;;;;;;;;;5021793;28;21719;-81
2021/05/20 10:53:34;;;;;;;1.05;1.00;;;;;;;;;;5019982;28;20516;-81
2021/05/20 10:56:00;;;;;;;1.98;0.93;;;;;;;;;;5021038;28;20060;-81
2021/05/20 10:58:30;;;;;;;1.85;1.15;;;;;;;;;;5018855;28;20044;-83
2021/05/20 11:00:56;;;;;;;1.52;0.95;;;;;;;;;;5021557;28;20033;-80
2021/05/20 11:03:42;;;;;;;2.25;0.73;;;;;;;;;;5019172;28;20385;-86
2021/05/20 11:06:08;;;;;;;1.23;0.70;;;;;;;;;;5006627;28;20499;-81
2021/05/20 11:08:34;;;;;;;1.00;0.73;;;;;;;;;;5005272;28;20033;-81
2021/05/20 11:11:00;;;;;;;1.33;0.70;;;;;;;;;;5021039;28;20029;-79
2021/05/20 11:13:39;;;;;;;0.60;0.60;;;;;;;;;;5019982;28;20026;-80
2021/05/20 11:16:14;;;;;;;0.73;0.40;;;;;;;;;;5003858;28;20424;-80
2021/05/20 11:18:41;;;;;;;0.50;0.40;;;;;;;;;;5020852;28;20423;-80
2021/05/20 11:21:07;;;;;;;0.85;0.75;;;;;;;;;;5019369;28;20033;-80
2021/05/20 11:23:35;;;;;;;0.80;0.63;;;;;;;;;;5019152;28;20036;-80
2021/05/20 11:26:01;;;;;;;0.90;0.70;;;;;;;;;;5020372;28;20121;-80
2021/05/20 11:28:27;;;;;;;2.00;0.68;;;;;;;;;;5019225;28;20469;-81
2021/05/20 11:31:00;;;;;;;1.10;0.80;;;;;;;;;;5006489;28;20136;-82
2021/05/20 11:33:29;;;;;;;1.13;0.95;;;;;;;;;;5035011;28;20036;-81
2021/05/20 11:36:17;;;;;;;1.55;0.85;;;;;;;;;;5039273;28;20029;-82
2021/05/20 11:38:59;;;;;;;1.10;0.55;;;;;;;;;;5036988;28;20050;-83
2021/05/20 11:41:26;;;;;;;2.25;0.85;;;;;;;;;;5028367;28;20297;-82
2021/05/20 11:44:10;;;;;;;1.75;1.05;;;;;;;;;;5014067;28;21435;-82
2021/05/20 11:46:38;;;;;;;1.35;0.90;;;;;;;;;;5016239;28;20017;-83
2021/05/20 11:49:05;;;;;;;1.60;0.80;;;;;;;;;;5032705;28;20083;-82
2021/05/20 11:51:41;;;;;;;0.98;0.60;;;;;;;;;;5047759;28;20033;-83
2021/05/20 11:54:11;;;;;;;2.67;0.50;;;;;;;;;;5047576;28;20021;-83
2021/05/20 11:56:38;;;;;;;1.38;0.50;;;;;;;;;;5047993;28;20104;-83
2021/05/20 11:59:04;;;;;;;2.50;0.95;;;;;;;;;;5046230;28;20099;-84
2021/05/20 12:01:30;;;;;;;2.75;0.82;;;;;;;;;;5049732;28;20136;-83
2021/05/20 12:04:03;;;;;;;1.83;0.50;;;;;;;;;;5047183;28;20032;-82
2021/05/20 12:06:30;;;;;;;1.63;1.02;;;;;;;;;;5046423;28;20031;-82
2021/05/20 12:09:05;;;;;;;1.63;1.15;;;;;;;;;;5047282;28;20025;-83
2021/05/20 12:11:31;;;;;;;0.73;0.73;;;;;;;;;;5047811;28;20108;-83
2021/05/20 12:13:57;;;;;;;1.70;0.77;;;;;;;;;;5046478;28;20087;-82
2021/05/20 12:16:34;;;;;;;1.40;0.80;;;;;;;;;;5047496;28;20771;-82
2021/05/20 12:19:02;;;;;;;1.52;0.70;;;;;;;;;;5045881;28;20032;-82
2021/05/20 12:21:28;;;;;;;1.17;0.68;;;;;;;;;;5046259;28;20032;-83
2021/05/20 12:23:56;;;;;;;2.17;0.90;;;;;;;;;;5055615;28;20059;-81
2021/05/20 12:26:26;;;;;;;0.90;0.60;;;;;;;;;;5066918;28;20107;-81
2021/05/20 12:28:52;;;;;;;1.40;0.60;;;;;;;;;;5066789;28;20351;-83
2021/05/20 12:31:19;;;;;;;0.73;0.50;;;;;;;;;;5064701;28;20083;-83
2021/05/20 12:33:49;;;;;;;0.60;0.60;;;;;;;;;;5056326;28;20028;-81
2021/05/20 12:36:29;;;;;;;4.15;0.55;;;;;;;;;;5042200;28;20237;-81
2021/05/20 12:38:56;;;;;;;2.83;0.90;;;;;;;;;;5046672;28;21280;-81
2021/05/20 12:41:22;;;;;;;1.55;0.68;;;;;;;;;;5046611;28;20025;-83
2021/05/20 12:43:48;;;;;;;2.05;0.80;;;;;;;;;;5017554;28;20408;-81
2021/05/20 12:46:17;;;;;;;3.95;0.90;;;;;;;;;;5028665;28;20171;-81
2021/05/20 12:48:46;;;;;;;1.10;0.68;;;;;;;;;;5047032;28;20563;-82
2021/05/20 12:51:15;;;;;;;1.35;0.73;;;;;;;;;;5044277;28;20013;-81
2021/05/20 12:53:43;;;;;;;2.83;0.93;;;;;;;;;;5046144;28;20029;-80
2021/05/20 12:56:30;;;;;;;2.88;0.73;;;;;;;;;;5045195;28;20048;-81
2021/05/20 12:58:57;;;;;;;1.27;0.70;;;;;;;;;;5046027;28;20116;-81
2021/05/20 13:01:25;;;;;;;0.80;0.60;;;;;;;;;;5044103;28;20652;-83
2021/05/20 13:03:53;;;;;;;0.80;0.60;;;;;;;;;;5044618;28;20214;-81
2021/05/20 13:06:23;;;;;;;2.22;0.93;;;;;;;;;;5044398;28;20013;-83
2021/05/20 13:08:49;;;;;;;1.80;0.80;;;;;;;;;;5044724;28;20036;-82
2021/05/20 13:11:18;;;;;;;2.15;1.10;;;;;;;;;;5065892;28;20024;-81
2021/05/20 13:13:47;;;;;;;0.80;0.80;;;;;;;;;;5050651;28;20355;-81
2021/05/20 13:22:13;;;;;;;4.13;1.83;;;;;;;;;;5046419;28;20549;-82
2021/05/20 13:24:47;;;;;;;1.90;0.90;;;;;;;;;;5045975;28;20648;-80
2021/05/20 13:27:13;;;;;;;3.88;1.00;;;;;;;;;;5037015;28;20028;-81
2021/05/20 13:29:44;;;;;;;2.25;0.90;;;;;;;;;;5045709;28;20049;-82
2021/05/20 13:35:09;;;;;;;1.80;0.82;;;;;;;;;;5035864;28;20033;-82
2021/05/20 13:37:36;;;;;;;0.68;0.68;;;;;;;;;;5046676;28;20487;-81
2021/05/20 13:40:05;;;;;;;0.90;0.70;;;;;;;;;;5045282;28;20583;-80
2021/05/20 13:42:32;;;;;;;2.42;0.60;;;;;;;;;;5034270;28;20016;-82
2021/05/20 13:44:58;;;;;;;3.00;0.95;;;;;;;;;;5046048;28;20040;-80
2021/05/20 13:47:24;;;;;;;0.82;0.75;;;;;;;;;;5046248;28;20029;-81
2021/05/20 13:49:51;;;;;;;1.42;0.68;;;;;;;;;;5045910;28;20029;-81
2021/05/20 13:52:18;;;;;;;2.22;0.68;;;;;;;;;;5040841;28;20072;-81
2021/05/20 13:54:48;;;;;;;1.75;1.55;;;;;;;;;;5050106;28;20112;-81
2021/05/20 13:57:14;;;;;;;3.08;0.73;;;;;;;;;;5050364;28;20033;-86
2021/05/20 13:59:44;;;;;;;1.05;0.77;;;;;;;;;;5049402;28;20120;-82
2021/05/20 14:02:19;;;;;;;2.53;0.60;;;;;;;;;;5049687;28;20534;-82
2021/05/20 14:04:46;;;;;;;1.60;0.60;;;;;;;;;;5050108;28;20024;-82
2021/05/20 14:07:13;;;;;;;3.92;0.75;;;;;;;;;;5049430;28;20053;-81
2021/05/20 14:09:40;;;;;;;1.30;0.73;;;;;;;;;;5050228;28;20033;-82
2021/05/20 14:12:06;;;;;;;1.42;0.80;;;;;;;;;;5049290;28;20025;-81
2021/05/20 14:14:33;;;;;;;1.30;1.02;;;;;;;;;;5048348;28;20033;-81
2021/05/20 14:16:59;;;;;;;2.05;1.13;;;;;;;;;;5050070;28;20419;-81
2021/05/20 14:19:27;;;;;;;3.47;1.33;;;;;;;;;;5032543;28;20033;-81
2021/05/20 14:21:53;;;;;;;2.95;1.77;;;;;;;;;;5048982;28;20402;-82
2021/05/20 14:24:20;;;;;;;2.10;1.90;;;;;;;;;;5048870;28;20036;-82
2021/05/20 14:26:46;;;;;;;2.05;1.83;;;;;;;;;;5050473;28;20510;-83
2021/05/20 14:29:13;;;;;;;2.28;1.80;;;;;;;;;;5051352;28;20049;-83
2021/05/20 14:31:39;;;;;;;1.83;1.25;;;;;;;;;;5052343;28;20021;-81
2021/05/20 14:34:05;;;;;;;2.70;1.50;;;;;;;;;;5052087;28;20060;-86
2021/05/20 14:36:31;;;;;;;1.27;1.00;;;;;;;;;;5058954;28;20395;-84
2021/05/20 14:38:57;;;;;;;1.05;0.98;;;;;;;;;;5044209;28;20042;-85
2021/05/20 14:41:23;;;;;;;2.83;1.13;;;;;;;;;;5044479;28;20096;-83
2021/05/20 14:43:50;;;;;;;5.97;1.25;;;;;;;;;;5052173;28;20028;-84
2021/05/20 14:46:16;;;;;;;3.08;1.08;;;;;;;;;;5033794;28;20446;-86
2021/05/20 14:48:43;;;;;;;1.25;1.15;;;;;;;;;;5034336;28;20057;-85
2021/05/20 14:53:46;;;;;;;1.20;0.70;;;;;;;;;;5037687;28;20033;-84
2021/05/20 14:59:01;;;;;;;1.45;1.17;;;;;;;;;;5034745;28;20045;-83
2021/05/20 15:06:51;;;;;;;1.00;0.90;;;;;;;;;;5039226;28;20068;-85
2021/05/20 15:09:39;;;;;;;3.35;0.95;;;;;;;;;;5032421;28;20037;-84
2021/05/20 15:12:19;;;;;;;4.05;1.20;;;;;;;;;;5027659;28;20033;-84
2021/05/20 15:14:58;;;;;;;1.67;0.70;;;;;;;;;;5039574;28;20033;-85